Time;durP1;ratioP1;P1;durP2;ratioP2;P2;SDS_P1;SDS_P2;PMS_P1;PMS_P2;Temp;Humidity;BMP_temperature;BMP_pressure;BME280_temperature;BME280_humidity;BME280_pressure;Samples;Min_cycle;Max_cycle;Signal;HPM_P1;HPM_P2
2022/04/09 06:00:06;;;;;;;2.35;1.40;;;;;;;13.00;82.97;98734.31;5605381;31;137139;-56
2022/04/09 06:03:17;;;;;;;3.08;1.35;;;;;;;13.00;82.97;98734.31;5583458;32;34922;-57
2022/04/09 06:06:20;;;;;;;4.35;1.60;;;;;;;12.42;85.47;98747.03;5583504;31;34206;-57
2022/04/09 06:09:23;;;;;;;2.45;1.50;;;;;;;12.55;85.24;98754.00;5583560;31;34745;-57
2022/04/09 06:12:25;;;;;;;1.48;1.33;;;;;;;12.48;84.71;98761.00;5583404;31;33549;-57
2022/04/09 06:15:29;;;;;;;3.62;1.70;;;;;;;12.52;85.07;98743.91;5590430;31;33326;-57
2022/04/09 06:18:31;;;;;;;3.67;1.90;;;;;;;12.59;84.72;98759.50;5603089;31;33443;-57
2022/04/09 06:21:34;;;;;;;2.72;1.58;;;;;;;12.67;84.24;98761.28;5603007;31;33653;-57
2022/04/09 06:24:37;;;;;;;11.40;2.35;;;;;;;12.58;83.20;98757.91;5588988;31;33204;-57
2022/04/09 06:27:41;;;;;;;3.12;1.48;;;;;;;12.59;84.88;98743.37;5602881;31;34183;-57
2022/04/09 06:30:44;;;;;;;5.45;1.45;;;;;;;12.81;83.58;98740.25;5602882;31;33497;-57
2022/04/09 06:33:47;;;;;;;4.40;1.50;;;;;;;12.69;83.17;98740.25;5602908;31;34440;-57
2022/04/09 06:36:49;;;;;;;3.50;1.33;;;;;;;12.70;83.72;98729.16;5602813;31;34226;-57
2022/04/09 06:39:52;;;;;;;4.43;1.80;;;;;;;12.81;83.21;98744.84;5602987;31;33241;-57
2022/04/09 06:42:56;;;;;;;2.87;1.65;;;;;;;12.82;84.34;98735.69;5602726;31;34519;-57
2022/04/09 06:46:02;;;;;;;2.75;1.60;;;;;;;12.82;84.25;98739.16;5602930;31;33573;-57
2022/04/09 06:49:06;;;;;;;2.60;1.77;;;;;;;12.83;84.80;98750.69;5602585;31;34729;-57
2022/04/09 06:52:08;;;;;;;3.03;1.67;;;;;;;12.88;84.89;98731.62;5602981;31;33432;-57
2022/04/09 06:55:12;;;;;;;3.42;2.10;;;;;;;12.92;82.94;98746.00;5602594;31;34095;-57
2022/04/09 06:58:15;;;;;;;3.92;2.10;;;;;;;12.71;84.03;98767.56;5602801;31;33408;-57
2022/04/09 07:01:18;;;;;;;7.87;2.00;;;;;;;12.71;85.91;98751.44;5602681;31;33660;-57
2022/04/09 07:04:20;;;;;;;4.85;2.20;;;;;;;12.91;84.39;98753.28;5602705;31;33499;-57
2022/04/09 07:07:25;;;;;;;4.07;2.03;;;;;;;13.00;83.44;98757.75;5602651;31;33737;-57
2022/04/09 07:10:27;;;;;;;3.28;1.80;;;;;;;12.93;84.04;98748.31;5593910;31;34236;-57
2022/04/09 07:13:31;;;;;;;4.37;2.00;;;;;;;12.82;83.91;98759.88;5582391;31;33609;-57
2022/04/09 07:16:33;;;;;;;7.55;5.35;;;;;;;12.76;84.83;98756.59;5569649;32;33175;-57
2022/04/09 07:19:38;;;;;;;3.22;2.00;;;;;;;12.93;84.85;98734.88;5569815;32;34350;-57
2022/04/09 11:47:42;;;;;;;1.73;1.62;;;;;;;8.92;66.31;99297.34;5604952;31;126539;-57
2022/04/09 11:50:50;;;;;;;2.78;2.10;;;;;;;9.11;65.79;99295.38;5583739;31;33399;-57
2022/04/09 11:53:52;;;;;;;3.85;1.85;;;;;;;9.24;64.86;99296.47;5583381;31;33579;-56
2022/04/09 11:56:54;;;;;;;1.87;1.60;;;;;;;9.36;64.29;99301.31;5582339;31;33713;-57
2022/04/09 11:59:57;;;;;;;2.03;1.45;;;;;;;9.44;62.02;99362.16;5583662;32;33654;-57
2022/04/09 12:03:14;;;;;;;1.83;1.58;;;;;;;9.35;61.08;99351.34;5583434;32;35189;-57
2022/04/09 12:06:17;;;;;;;1.98;1.30;;;;;;;9.33;62.44;99355.41;5583318;32;33248;-57
2022/04/09 12:09:22;;;;;;;2.62;1.58;;;;;;;9.21;59.68;99363.94;5583462;31;33550;-56
2022/04/09 12:12:24;;;;;;;2.87;1.60;;;;;;;9.24;59.65;99366.00;5583428;31;33246;-57
2022/04/09 12:15:29;;;;;;;5.57;1.65;;;;;;;9.25;60.09;99354.22;5583381;32;33572;-57
2022/04/09 12:18:32;;;;;;;2.50;2.08;;;;;;;9.11;60.18;99340.84;5583020;32;33722;-57
2022/04/09 12:21:35;;;;;;;4.90;2.00;;;;;;;9.51;59.68;99369.78;5583262;32;33627;-57
2022/04/09 12:24:47;;;;;;;3.50;2.15;;;;;;;9.48;59.16;99378.41;5582787;32;33669;-57
2022/04/09 12:27:55;;;;;;;6.72;2.40;;;;;;;9.64;60.48;99374.34;5597522;31;34412;-57
2022/04/09 12:31:03;;;;;;;5.03;2.25;;;;;;;9.83;57.88;99384.91;5602873;31;34692;-57
2022/04/09 12:34:05;;;;;;;2.28;2.05;;;;;;;9.81;57.45;99395.16;5600174;31;33603;-56
2022/04/09 12:37:07;;;;;;;4.68;3.03;;;;;;;9.67;56.76;99408.53;5583143;31;33764;-57
2022/04/09 12:40:12;;;;;;;4.45;2.10;;;;;;;9.50;58.55;99398.41;5600622;31;33710;-56
2022/04/09 12:43:35;;;;;;;4.35;2.37;;;;;;;9.55;57.48;99376.13;5596031;31;33709;-57
2022/04/09 12:46:47;;;;;;;3.50;2.37;;;;;;;9.58;57.40;99368.28;5582863;32;33690;-57
2022/04/09 12:49:50;;;;;;;4.95;3.12;;;;;;;9.57;56.33;99364.03;5583075;31;33622;-57
2022/04/09 12:52:53;;;;;;;2.85;2.17;;;;;;;9.29;57.09;99367.78;5582639;32;34299;-57
2022/04/09 12:55:56;;;;;;;3.10;2.22;;;;;;;9.49;55.24;99358.59;5583067;31;33602;-58
2022/04/09 12:59:03;;;;;;;3.35;2.00;;;;;;;9.65;58.50;99360.66;5569731;32;33685;-59
2022/04/09 13:02:06;;;;;;;4.70;1.95;;;;;;;9.73;56.98;99377.09;5569864;32;34354;-57
2022/04/09 13:05:09;;;;;;;3.65;2.12;;;;;;;9.80;53.60;99374.81;5568435;32;34255;-57
2022/04/09 13:08:12;;;;;;;3.15;1.90;;;;;;;9.52;56.41;99371.38;5569676;32;33601;-56
2022/04/09 13:11:14;;;;;;;3.00;2.30;;;;;;;9.29;55.17;99365.91;5569717;32;33736;-56
2022/04/09 13:14:17;;;;;;;3.00;1.73;;;;;;;9.11;55.40;99369.47;5568437;32;34667;-57
2022/04/09 13:17:19;;;;;;;4.03;2.60;;;;;;;9.25;55.52;99382.84;5569386;32;35087;-56
2022/04/09 13:20:21;;;;;;;5.37;2.80;;;;;;;9.08;55.84;99392.22;5569570;32;34359;-57
2022/04/09 13:23:23;;;;;;;2.67;2.03;;;;;;;9.25;61.38;99412.25;5569511;32;34296;-57
2022/04/09 13:26:26;;;;;;;6.25;2.75;;;;;;;9.30;55.48;99437.00;5569345;32;35120;-56
2022/04/09 13:29:28;;;;;;;3.15;2.30;;;;;;;9.23;55.90;99417.09;5569549;32;33694;-57
2022/04/09 13:32:30;;;;;;;4.07;2.60;;;;;;;9.25;56.77;99413.06;5569262;32;34442;-57
2022/04/09 13:35:34;;;;;;;4.68;2.87;;;;;;;9.25;57.34;99405.03;5569502;32;33710;-57
2022/04/09 13:38:36;;;;;;;9.38;4.18;;;;;;;9.20;55.58;99407.00;5569537;32;34410;-57
2022/04/09 13:41:38;;;;;;;6.32;2.95;;;;;;;9.28;55.24;99396.41;5569567;32;34295;-57
2022/04/09 13:44:43;;;;;;;4.20;2.70;;;;;;;9.16;54.71;99430.84;5578058;31;34228;-57
2022/04/09 13:47:45;;;;;;;3.42;2.87;;;;;;;9.24;55.05;99435.53;5589021;31;33294;-57
2022/04/09 13:50:48;;;;;;;3.78;3.30;;;;;;;9.39;55.83;99451.31;5578370;31;34324;-57
2022/04/09 13:53:50;;;;;;;4.03;3.20;;;;;;;9.53;54.76;99442.50;5569290;32;33718;-56
2022/04/09 13:56:52;;;;;;;4.65;3.03;;;;;;;9.39;55.11;99456.66;5569437;32;33668;-57
2022/04/09 13:59:54;;;;;;;11.73;4.25;;;;;;;9.49;53.83;99457.56;5569485;32;33944;-57
2022/04/09 14:02:57;;;;;;;8.02;4.40;;;;;;;9.58;56.02;99437.06;5569258;32;33813;-58
2022/04/09 14:05:59;;;;;;;23.30;4.60;;;;;;;9.95;53.68;99451.34;5569341;32;33754;-57
2022/04/09 14:09:02;;;;;;;6.20;3.90;;;;;;;10.29;59.91;99440.22;5568421;32;33684;-57
2022/04/09 14:12:04;;;;;;;6.80;3.72;;;;;;;10.04;52.58;99426.25;5568122;32;33610;-56
2022/04/09 14:15:07;;;;;;;8.63;4.10;;;;;;;9.80;55.12;99441.72;5569089;32;33999;-57
2022/04/09 14:18:09;;;;;;;9.65;4.70;;;;;;;9.78;52.79;99438.56;5569238;32;34403;-57
2022/04/09 14:21:11;;;;;;;5.20;4.20;;;;;;;10.21;58.77;99427.53;5569315;32;33699;-56
2022/04/09 14:24:14;;;;;;;8.75;4.07;;;;;;;9.81;52.55;99436.09;5569406;32;33389;-57
2022/04/09 14:27:16;;;;;;;8.90;4.20;;;;;;;10.21;54.88;99431.00;5569091;32;33677;-58
2022/04/09 14:30:19;;;;;;;11.80;4.30;;;;;;;10.28;53.11;99449.34;5569136;32;33649;-57
2022/04/09 14:33:21;;;;;;;5.78;3.87;;;;;;;10.66;56.36;99460.59;5569053;32;34208;-57
2022/04/09 14:36:24;;;;;;;6.60;4.03;;;;;;;10.47;51.98;99484.06;5569034;32;33672;-57
2022/04/09 14:39:26;;;;;;;15.82;5.07;;;;;;;10.14;54.64;99489.53;5567881;32;33213;-57
2022/04/09 14:42:28;;;;;;;5.12;3.95;;;;;;;10.20;56.62;99503.59;5569109;32;34336;-57
2022/04/09 14:45:31;;;;;;;9.00;3.95;;;;;;;10.11;51.34;99520.37;5568886;32;33648;-57
2022/04/09 14:48:37;;;;;;;9.27;4.60;;;;;;;10.08;51.74;99536.25;5568843;32;33698;-57
2022/04/09 14:51:39;;;;;;;8.30;4.57;;;;;;;9.89;52.13;99533.63;5568762;32;33836;-56
